sensor_id;sensor_type;location;lat;lon;timestamp;pressure;altitude;pressure_sealevel;temperature;humidity
52983;BME280;48698;45.736;13.926;2023-02-22T00:03:52;97964.34;;;5.97;100.00
52983;BME280;48698;45.736;13.926;2023-02-22T00:08:57;97852.31;;;4.84;100.00
52983;BME280;48698;45.736;13.926;2023-02-22T00:14:04;97911.28;;;5.11;100.00
52983;BME280;48698;45.736;13.926;2023-02-22T00:19:08;97710.63;;;4.01;100.00
52983;BME280;48698;45.736;13.926;2023-02-22T00:24:13;97723.50;;;4.12;100.00
52983;BME280;48698;45.736;13.926;2023-02-22T00:29:28;97938.66;;;5.05;100.00
52983;BME280;48698;45.736;13.926;2023-02-22T00:34:32;97943.44;;;4.90;100.00
52983;BME280;48698;45.736;13.926;2023-02-22T00:39:48;97940.38;;;5.06;100.00
52983;BME280;48698;45.736;13.926;2023-02-22T00:44:52;97884.19;;;4.35;100.00
52983;BME280;48698;45.736;13.926;2023-02-22T00:49:56;97938.81;;;4.62;100.00
52983;BME280;48698;45.736;13.926;2023-02-22T00:55:07;97926.34;;;4.71;100.00
52983;BME280;48698;45.736;13.926;2023-02-22T01:00:17;97926.75;;;4.12;100.00
52983;BME280;48698;45.736;13.926;2023-02-22T01:05:24;97863.59;;;3.77;100.00
52983;BME280;48698;45.736;13.926;2023-02-22T01:10:30;97884.13;;;4.00;100.00
52983;BME280;48698;45.736;13.926;2023-02-22T01:15:34;97923.25;;;4.13;100.00
52983;BME280;48698;45.736;13.926;2023-02-22T01:20:38;97723.59;;;2.91;100.00
52983;BME280;48698;45.736;13.926;2023-02-22T01:25:43;97703.34;;;2.53;100.00
52983;BME280;48698;45.736;13.926;2023-02-22T01:30:47;97811.09;;;3.33;100.00
52983;BME280;48698;45.736;13.926;2023-02-22T01:35:53;97702.16;;;2.69;100.00
52983;BME280;48698;45.736;13.926;2023-02-22T01:40:57;97811.84;;;2.95;100.00
52983;BME280;48698;45.736;13.926;2023-02-22T01:46:02;97871.88;;;3.11;100.00
52983;BME280;48698;45.736;13.926;2023-02-22T01:56:20;97600.25;;;1.58;100.00
52983;BME280;48698;45.736;13.926;2023-02-22T02:01:26;97680.75;;;1.40;100.00
52983;BME280;48698;45.736;13.926;2023-02-22T02:06:33;97609.94;;;0.93;100.00
52983;BME280;48698;45.736;13.926;2023-02-22T02:11:39;97667.19;;;1.14;100.00
52983;BME280;48698;45.736;13.926;2023-02-22T02:16:45;97650.72;;;1.66;100.00
52983;BME280;48698;45.736;13.926;2023-02-22T02:27:17;97631.25;;;0.66;100.00
52983;BME280;48698;45.736;13.926;2023-02-22T02:43:12;97787.34;;;1.29;100.00
52983;BME280;48698;45.736;13.926;2023-02-22T02:48:20;97673.75;;;1.44;100.00
52983;BME280;48698;45.736;13.926;2023-02-22T02:53:40;97729.56;;;1.44;100.00
52983;BME280;48698;45.736;13.926;2023-02-22T02:58:50;97856.88;;;2.14;100.00
52983;BME280;48698;45.736;13.926;2023-02-22T03:09:39;97834.59;;;1.84;100.00
52983;BME280;48698;45.736;13.926;2023-02-22T03:20:29;97811.81;;;1.25;100.00
52983;BME280;48698;45.736;13.926;2023-02-22T03:25:40;97835.75;;;1.64;100.00
52983;BME280;48698;45.736;13.926;2023-02-22T03:31:09;97718.31;;;0.68;100.00
52983;BME280;48698;45.736;13.926;2023-02-22T03:36:21;97797.81;;;1.29;100.00
52983;BME280;48698;45.736;13.926;2023-02-22T03:41:28;97830.31;;;1.79;100.00
52983;BME280;48698;45.736;13.926;2023-02-22T03:46:34;97703.00;;;0.34;100.00
52983;BME280;48698;45.736;13.926;2023-02-22T03:51:39;97788.72;;;0.84;100.00
52983;BME280;48698;45.736;13.926;2023-02-22T03:56:55;97600.75;;;-0.10;100.00
52983;BME280;48698;45.736;13.926;2023-02-22T04:02:08;97797.34;;;0.94;100.00
52983;BME280;48698;45.736;13.926;2023-02-22T04:07:12;97759.09;;;0.85;100.00
52983;BME280;48698;45.736;13.926;2023-02-22T04:12:16;97791.13;;;1.04;100.00
52983;BME280;48698;45.736;13.926;2023-02-22T04:17:20;97792.47;;;1.37;100.00
52983;BME280;48698;45.736;13.926;2023-02-22T04:22:24;97685.19;;;0.70;100.00
52983;BME280;48698;45.736;13.926;2023-02-22T04:27:28;97712.69;;;0.20;100.00
52983;BME280;48698;45.736;13.926;2023-02-22T04:32:32;97767.03;;;0.75;100.00
52983;BME280;48698;45.736;13.926;2023-02-22T04:37:35;97767.78;;;0.89;100.00
52983;BME280;48698;45.736;13.926;2023-02-22T04:42:39;97753.59;;;1.08;100.00
52983;BME280;48698;45.736;13.926;2023-02-22T04:47:43;97698.13;;;-0.02;100.00
52983;BME280;48698;45.736;13.926;2023-02-22T04:52:46;97567.28;;;-0.59;100.00
52983;BME280;48698;45.736;13.926;2023-02-22T04:57:51;97541.56;;;-1.04;100.00
52983;BME280;48698;45.736;13.926;2023-02-22T05:02:55;97822.31;;;1.22;100.00
52983;BME280;48698;45.736;13.926;2023-02-22T05:07:58;97697.75;;;0.37;100.00
52983;BME280;48698;45.736;13.926;2023-02-22T05:13:02;97772.84;;;1.01;100.00
52983;BME280;48698;45.736;13.926;2023-02-22T05:18:06;97635.59;;;-0.14;100.00
52983;BME280;48698;45.736;13.926;2023-02-22T05:23:15;97731.72;;;0.36;100.00
52983;BME280;48698;45.736;13.926;2023-02-22T05:28:19;97761.84;;;0.72;100.00
52983;BME280;48698;45.736;13.926;2023-02-22T05:33:23;97723.22;;;0.14;100.00
52983;BME280;48698;45.736;13.926;2023-02-22T05:38:27;97795.34;;;0.29;100.00
52983;BME280;48698;45.736;13.926;2023-02-22T05:43:30;97568.22;;;-0.69;100.00
52983;BME280;48698;45.736;13.926;2023-02-22T05:48:34;97661.09;;;-0.49;100.00
52983;BME280;48698;45.736;13.926;2023-02-22T05:53:42;97810.09;;;0.34;100.00
52983;BME280;48698;45.736;13.926;2023-02-22T05:58:46;97741.38;;;0.29;100.00
52983;BME280;48698;45.736;13.926;2023-02-22T06:03:50;97780.41;;;0.46;100.00
52983;BME280;48698;45.736;13.926;2023-02-22T06:08:56;97689.72;;;-0.39;100.00
52983;BME280;48698;45.736;13.926;2023-02-22T06:14:00;97775.56;;;-0.01;100.00
52983;BME280;48698;45.736;13.926;2023-02-22T06:19:03;97627.53;;;-0.98;100.00
52983;BME280;48698;45.736;13.926;2023-02-22T06:24:07;97788.34;;;0.35;100.00
52983;BME280;48698;45.736;13.926;2023-02-22T06:29:11;97802.13;;;0.52;100.00
52983;BME280;48698;45.736;13.926;2023-02-22T06:34:15;97660.00;;;-0.21;100.00
52983;BME280;48698;45.736;13.926;2023-02-22T06:39:20;97780.66;;;0.14;100.00
52983;BME280;48698;45.736;13.926;2023-02-22T06:44:24;97850.91;;;0.50;100.00
52983;BME280;48698;45.736;13.926;2023-02-22T06:49:28;97726.63;;;0.21;100.00
52983;BME280;48698;45.736;13.926;2023-02-22T06:54:31;97616.81;;;-0.56;100.00
52983;BME280;48698;45.736;13.926;2023-02-22T06:59:35;97824.63;;;0.69;100.00
52983;BME280;48698;45.736;13.926;2023-02-22T07:04:38;97713.47;;;0.31;100.00
52983;BME280;48698;45.736;13.926;2023-02-22T07:09:45;97818.09;;;1.09;100.00
52983;BME280;48698;45.736;13.926;2023-02-22T07:14:53;97841.06;;;1.58;100.00
52983;BME280;48698;45.736;13.926;2023-02-22T07:19:57;97838.72;;;2.00;100.00
52983;BME280;48698;45.736;13.926;2023-02-22T07:25:01;97860.13;;;2.30;100.00
52983;BME280;48698;45.736;13.926;2023-02-22T07:30:05;97720.66;;;1.59;100.00
52983;BME280;48698;45.736;13.926;2023-02-22T07:35:32;97867.66;;;2.49;100.00
52983;BME280;48698;45.736;13.926;2023-02-22T07:40:40;97866.06;;;2.93;100.00
52983;BME280;48698;45.736;13.926;2023-02-22T07:45:45;97865.44;;;3.28;100.00
52983;BME280;48698;45.736;13.926;2023-02-22T07:50:58;97827.72;;;3.33;100.00
52983;BME280;48698;45.736;13.926;2023-02-22T07:56:03;97860.41;;;4.01;100.00
52983;BME280;48698;45.736;13.926;2023-02-22T08:01:07;97843.22;;;4.25;100.00
52983;BME280;48698;45.736;13.926;2023-02-22T08:06:11;97796.06;;;4.19;100.00
52983;BME280;48698;45.736;13.926;2023-02-22T08:11:15;97777.66;;;4.19;100.00
52983;BME280;48698;45.736;13.926;2023-02-22T08:16:18;97860.38;;;5.12;100.00
52983;BME280;48698;45.736;13.926;2023-02-22T08:21:22;97797.19;;;5.12;100.00
52983;BME280;48698;45.736;13.926;2023-02-22T08:26:26;97661.53;;;4.69;100.00
52983;BME280;48698;45.736;13.926;2023-02-22T08:31:30;97851.63;;;6.05;100.00
52983;BME280;48698;45.736;13.926;2023-02-22T08:36:33;97748.81;;;5.76;100.00
52983;BME280;48698;45.736;13.926;2023-02-22T08:41:36;97782.56;;;6.48;100.00
52983;BME280;48698;45.736;13.926;2023-02-22T08:46:40;97836.91;;;7.06;100.00
52983;BME280;48698;45.736;13.926;2023-02-22T08:51:44;97620.31;;;6.10;100.00
52983;BME280;48698;45.736;13.926;2023-02-22T08:56:48;97800.38;;;7.67;100.00
52983;BME280;48698;45.736;13.926;2023-02-22T09:01:52;97835.00;;;8.30;100.00
52983;BME280;48698;45.736;13.926;2023-02-22T09:06:57;97768.13;;;8.04;100.00
52983;BME280;48698;45.736;13.926;2023-02-22T09:12:01;97830.34;;;8.80;100.00
52983;BME280;48698;45.736;13.926;2023-02-22T09:17:05;97720.19;;;8.35;100.00
52983;BME280;48698;45.736;13.926;2023-02-22T09:22:09;97573.72;;;7.94;100.00
52983;BME280;48698;45.736;13.926;2023-02-22T09:27:12;97774.19;;;9.53;100.00
52983;BME280;48698;45.736;13.926;2023-02-22T09:32:17;97659.97;;;9.58;100.00
52983;BME280;48698;45.736;13.926;2023-02-22T09:37:21;97756.31;;;10.86;100.00
52983;BME280;48698;45.736;13.926;2023-02-22T09:42:30;97781.25;;;11.85;100.00
52983;BME280;48698;45.736;13.926;2023-02-22T09:47:46;97689.28;;;11.31;100.00
52983;BME280;48698;45.736;13.926;2023-02-22T09:52:59;97768.75;;;12.34;100.00
52983;BME280;48698;45.736;13.926;2023-02-22T09:58:19;97774.56;;;11.93;100.00
52983;BME280;48698;45.736;13.926;2023-02-22T10:08:48;97666.66;;;11.88;100.00
52983;BME280;48698;45.736;13.926;2023-02-22T10:19:20;97756.91;;;12.24;100.00
52983;BME280;48698;45.736;13.926;2023-02-22T10:29:58;97744.19;;;11.98;100.00
52983;BME280;48698;45.736;13.926;2023-02-22T10:35:23;97742.31;;;12.00;100.00
52983;BME280;48698;45.736;13.926;2023-02-22T10:40:28;97475.16;;;10.28;100.00
52983;BME280;48698;45.736;13.926;2023-02-22T10:45:35;97570.19;;;10.89;100.00
52983;BME280;48698;45.736;13.926;2023-02-22T10:50:43;97730.28;;;12.24;100.00
52983;BME280;48698;45.736;13.926;2023-02-22T11:01:27;97711.28;;;12.30;100.00
52983;BME280;48698;45.736;13.926;2023-02-22T11:06:32;97724.78;;;12.42;100.00
52983;BME280;48698;45.736;13.926;2023-02-22T11:11:38;97549.50;;;11.74;100.00
52983;BME280;48698;45.736;13.926;2023-02-22T11:16:49;97700.31;;;13.11;100.00
52983;BME280;48698;45.736;13.926;2023-02-22T11:27:07;97397.88;;;11.28;100.00
52983;BME280;48698;45.736;13.926;2023-02-22T11:32:14;97657.41;;;12.40;100.00
52983;BME280;48698;45.736;13.926;2023-02-22T11:37:35;97635.75;;;12.01;100.00
52983;BME280;48698;45.736;13.926;2023-02-22T11:42:39;97407.03;;;11.68;100.00
52983;BME280;48698;45.736;13.926;2023-02-22T11:47:48;97658.91;;;13.34;100.00
52983;BME280;48698;45.736;13.926;2023-02-22T11:53:11;97655.28;;;13.21;100.00
52983;BME280;48698;45.736;13.926;2023-02-22T12:09:30;97533.75;;;13.31;100.00
52983;BME280;48698;45.736;13.926;2023-02-22T12:14:58;97483.69;;;13.49;100.00
52983;BME280;48698;45.736;13.926;2023-02-22T12:20:17;97552.34;;;13.59;100.00
52983;BME280;48698;45.736;13.926;2023-02-22T12:25:27;97514.03;;;13.19;100.00
52983;BME280;48698;45.736;13.926;2023-02-22T12:30:38;97311.81;;;12.31;100.00
52983;BME280;48698;45.736;13.926;2023-02-22T12:35:50;97554.38;;;13.82;100.00
52983;BME280;48698;45.736;13.926;2023-02-22T12:41:25;97604.50;;;13.91;100.00
52983;BME280;48698;45.736;13.926;2023-02-22T12:46:36;97599.47;;;14.14;100.00
52983;BME280;48698;45.736;13.926;2023-02-22T12:51:50;97425.13;;;13.33;100.00
52983;BME280;48698;45.736;13.926;2023-02-22T12:57:04;97471.84;;;13.53;100.00
52983;BME280;48698;45.736;13.926;2023-02-22T13:02:33;97569.16;;;13.47;100.00
52983;BME280;48698;45.736;13.926;2023-02-22T13:07:44;97584.41;;;13.45;100.00
52983;BME280;48698;45.736;13.926;2023-02-22T13:13:15;97578.09;;;13.87;100.00
52983;BME280;48698;45.736;13.926;2023-02-22T13:18:28;97546.31;;;13.70;100.00
52983;BME280;48698;45.736;13.926;2023-02-22T13:24:14;97567.38;;;13.74;100.00
52983;BME280;48698;45.736;13.926;2023-02-22T13:29:27;97574.69;;;13.85;100.00
52983;BME280;48698;45.736;13.926;2023-02-22T13:50:42;97517.63;;;13.32;100.00
52983;BME280;48698;45.736;13.926;2023-02-22T13:55:55;97505.53;;;13.27;100.00
52983;BME280;48698;45.736;13.926;2023-02-22T14:01:00;97413.47;;;12.38;100.00
52983;BME280;48698;45.736;13.926;2023-02-22T14:06:06;97442.06;;;12.77;100.00
52983;BME280;48698;45.736;13.926;2023-02-22T14:16:20;97558.47;;;13.47;100.00
52983;BME280;48698;45.736;13.926;2023-02-22T14:21:24;97443.03;;;12.76;100.00
52983;BME280;48698;45.736;13.926;2023-02-22T14:26:31;97547.06;;;13.31;100.00
52983;BME280;48698;45.736;13.926;2023-02-22T14:36:57;97473.56;;;12.70;100.00
52983;BME280;48698;45.736;13.926;2023-02-22T14:42:09;97550.00;;;12.84;100.00
52983;BME280;48698;45.736;13.926;2023-02-22T14:47:21;97534.50;;;12.90;100.00
52983;BME280;48698;45.736;13.926;2023-02-22T14:52:34;97536.81;;;13.11;100.00
52983;BME280;48698;45.736;13.926;2023-02-22T15:08:48;97414.78;;;12.31;100.00
52983;BME280;48698;45.736;13.926;2023-02-22T15:13:53;97432.56;;;12.30;100.00
52983;BME280;48698;45.736;13.926;2023-02-22T15:18:58;97393.81;;;11.97;100.00
52983;BME280;48698;45.736;13.926;2023-02-22T15:24:04;97481.19;;;12.48;100.00
52983;BME280;48698;45.736;13.926;2023-02-22T15:29:21;97476.78;;;12.19;100.00
52983;BME280;48698;45.736;13.926;2023-02-22T15:34:28;97534.84;;;12.42;100.00
52983;BME280;48698;45.736;13.926;2023-02-22T15:39:32;97474.03;;;11.90;100.00
52983;BME280;48698;45.736;13.926;2023-02-22T15:44:41;97504.72;;;11.82;100.00
52983;BME280;48698;45.736;13.926;2023-02-22T15:50:18;97538.00;;;11.89;100.00
52983;BME280;48698;45.736;13.926;2023-02-22T15:55:30;97543.19;;;11.76;100.00
52983;BME280;48698;45.736;13.926;2023-02-22T16:00:40;97334.16;;;10.19;100.00
52983;BME280;48698;45.736;13.926;2023-02-22T16:05:51;97517.75;;;11.08;100.00
52983;BME280;48698;45.736;13.926;2023-02-22T16:11:09;97403.91;;;10.21;100.00
52983;BME280;48698;45.736;13.926;2023-02-22T16:21:21;97552.63;;;10.86;100.00
52983;BME280;48698;45.736;13.926;2023-02-22T16:26:31;97410.88;;;9.89;100.00
52983;BME280;48698;45.736;13.926;2023-02-22T16:31:36;97413.22;;;9.78;100.00
52983;BME280;48698;45.736;13.926;2023-02-22T16:36:50;97553.16;;;10.60;100.00
52983;BME280;48698;45.736;13.926;2023-02-22T16:41:59;97522.72;;;10.33;100.00
52983;BME280;48698;45.736;13.926;2023-02-22T16:47:03;97397.72;;;9.36;100.00
52983;BME280;48698;45.736;13.926;2023-02-22T16:52:17;97436.84;;;9.31;100.00
52983;BME280;48698;45.736;13.926;2023-02-22T16:57:23;97505.03;;;9.63;100.00
52983;BME280;48698;45.736;13.926;2023-02-22T17:02:40;97575.19;;;9.92;100.00
52983;BME280;48698;45.736;13.926;2023-02-22T17:07:53;97598.59;;;10.01;100.00
52983;BME280;48698;45.736;13.926;2023-02-22T17:12:58;97531.34;;;9.49;100.00
52983;BME280;48698;45.736;13.926;2023-02-22T17:18:16;97516.22;;;9.34;100.00
52983;BME280;48698;45.736;13.926;2023-02-22T17:23:24;97559.66;;;9.67;100.00
52983;BME280;48698;45.736;13.926;2023-02-22T17:28:30;97610.31;;;9.97;100.00
52983;BME280;48698;45.736;13.926;2023-02-22T17:33:34;97632.50;;;10.13;100.00
52983;BME280;48698;45.736;13.926;2023-02-22T17:38:39;97401.06;;;8.87;100.00
52983;BME280;48698;45.736;13.926;2023-02-22T17:43:44;97612.25;;;9.94;100.00
52983;BME280;48698;45.736;13.926;2023-02-22T17:48:51;97535.66;;;9.52;100.00
52983;BME280;48698;45.736;13.926;2023-02-22T17:53:57;97628.13;;;10.12;100.00
52983;BME280;48698;45.736;13.926;2023-02-22T17:59:10;97599.88;;;9.94;100.00
52983;BME280;48698;45.736;13.926;2023-02-22T18:04:14;97531.75;;;9.59;100.00
52983;BME280;48698;45.736;13.926;2023-02-22T18:09:18;97527.72;;;9.33;100.00
52983;BME280;48698;45.736;13.926;2023-02-22T18:14:22;97398.72;;;8.43;100.00
52983;BME280;48698;45.736;13.926;2023-02-22T18:19:25;97608.81;;;9.56;100.00
52983;BME280;48698;45.736;13.926;2023-02-22T18:24:31;97635.41;;;9.54;100.00
52983;BME280;48698;45.736;13.926;2023-02-22T18:29:36;97550.75;;;9.14;100.00
52983;BME280;48698;45.736;13.926;2023-02-22T18:34:40;97353.47;;;7.92;100.00
52983;BME280;48698;45.736;13.926;2023-02-22T18:39:43;97368.09;;;7.99;100.00
52983;BME280;48698;45.736;13.926;2023-02-22T18:44:49;97435.56;;;8.66;100.00
52983;BME280;48698;45.736;13.926;2023-02-22T18:49:56;97439.41;;;8.59;100.00
52983;BME280;48698;45.736;13.926;2023-02-22T18:55:00;97486.66;;;8.87;100.00
52983;BME280;48698;45.736;13.926;2023-02-22T19:00:15;97610.94;;;9.29;100.00
52983;BME280;48698;45.736;13.926;2023-02-22T19:05:20;97601.56;;;9.22;100.00
52983;BME280;48698;45.736;13.926;2023-02-22T19:10:26;97608.66;;;9.21;100.00
52983;BME280;48698;45.736;13.926;2023-02-22T19:15:37;97612.94;;;8.66;100.00
52983;BME280;48698;45.736;13.926;2023-02-22T19:20:40;97606.06;;;8.42;100.00
52983;BME280;48698;45.736;13.926;2023-02-22T19:25:46;97603.16;;;8.48;100.00
52983;BME280;48698;45.736;13.926;2023-02-22T19:31:10;97487.25;;;7.75;100.00
52983;BME280;48698;45.736;13.926;2023-02-22T19:36:14;97447.69;;;7.32;100.00
52983;BME280;48698;45.736;13.926;2023-02-22T19:41:21;97629.34;;;8.34;100.00
52983;BME280;48698;45.736;13.926;2023-02-22T19:46:26;97623.31;;;8.09;100.00
52983;BME280;48698;45.736;13.926;2023-02-22T19:51:31;97530.56;;;7.51;100.00
52983;BME280;48698;45.736;13.926;2023-02-22T19:56:35;97629.44;;;8.11;100.00
52983;BME280;48698;45.736;13.926;2023-02-22T20:01:40;97473.78;;;6.96;100.00
52983;BME280;48698;45.736;13.926;2023-02-22T20:06:48;97629.88;;;7.78;100.00
52983;BME280;48698;45.736;13.926;2023-02-22T20:11:52;97558.03;;;7.25;100.00
52983;BME280;48698;45.736;13.926;2023-02-22T20:16:56;97628.69;;;7.64;100.00
52983;BME280;48698;45.736;13.926;2023-02-22T20:21:59;97642.03;;;7.82;100.00
52983;BME280;48698;45.736;13.926;2023-02-22T20:27:01;97489.72;;;6.71;100.00
52983;BME280;48698;45.736;13.926;2023-02-22T20:32:05;97626.59;;;7.50;100.00
52983;BME280;48698;45.736;13.926;2023-02-22T20:37:08;97520.81;;;7.32;100.00
52983;BME280;48698;45.736;13.926;2023-02-22T20:42:10;97389.03;;;6.37;100.00
52983;BME280;48698;45.736;13.926;2023-02-22T20:47:13;97416.66;;;6.50;100.00
52983;BME280;48698;45.736;13.926;2023-02-22T20:52:16;97447.44;;;6.73;100.00
52983;BME280;48698;45.736;13.926;2023-02-22T20:57:19;97598.16;;;7.78;100.00
52983;BME280;48698;45.736;13.926;2023-02-22T21:02:22;97628.50;;;8.12;100.00
52983;BME280;48698;45.736;13.926;2023-02-22T21:07:24;97590.03;;;7.83;100.00
52983;BME280;48698;45.736;13.926;2023-02-22T21:12:27;97473.28;;;7.30;100.00
52983;BME280;48698;45.736;13.926;2023-02-22T21:17:30;97494.19;;;6.69;100.00
52983;BME280;48698;45.736;13.926;2023-02-22T21:22:33;97320.75;;;5.37;100.00
52983;BME280;48698;45.736;13.926;2023-02-22T21:27:46;97584.72;;;7.18;100.00
52983;BME280;48698;45.736;13.926;2023-02-22T21:32:50;97608.63;;;7.37;100.00
52983;BME280;48698;45.736;13.926;2023-02-22T21:37:55;97566.47;;;7.12;100.00
52983;BME280;48698;45.736;13.926;2023-02-22T21:42:57;97312.69;;;5.64;100.00
52983;BME280;48698;45.736;13.926;2023-02-22T21:48:00;97496.91;;;6.90;100.00
52983;BME280;48698;45.736;13.926;2023-02-22T21:53:03;97555.22;;;7.07;100.00
52983;BME280;48698;45.736;13.926;2023-02-22T21:58:17;97304.13;;;5.59;100.00
52983;BME280;48698;45.736;13.926;2023-02-22T22:03:20;97539.22;;;6.88;100.00
52983;BME280;48698;45.736;13.926;2023-02-22T22:08:32;97474.13;;;6.65;100.00
52983;BME280;48698;45.736;13.926;2023-02-22T22:13:38;97412.19;;;6.52;100.00
52983;BME280;48698;45.736;13.926;2023-02-22T22:18:42;97569.69;;;7.63;100.00
52983;BME280;48698;45.736;13.926;2023-02-22T22:23:46;97553.84;;;7.42;100.00
52983;BME280;48698;45.736;13.926;2023-02-22T22:28:52;97581.31;;;7.38;100.00
52983;BME280;48698;45.736;13.926;2023-02-22T22:33:55;97580.88;;;7.48;100.00
52983;BME280;48698;45.736;13.926;2023-02-22T22:38:58;97569.50;;;7.46;100.00
52983;BME280;48698;45.736;13.926;2023-02-22T22:44:02;97581.06;;;7.44;100.00
52983;BME280;48698;45.736;13.926;2023-02-22T22:49:08;97560.78;;;7.66;100.00
52983;BME280;48698;45.736;13.926;2023-02-22T22:54:11;97480.13;;;7.14;100.00
52983;BME280;48698;45.736;13.926;2023-02-22T22:59:13;97425.53;;;6.71;100.00
52983;BME280;48698;45.736;13.926;2023-02-22T23:04:16;97549.94;;;7.07;100.00
52983;BME280;48698;45.736;13.926;2023-02-22T23:09:28;97515.31;;;7.14;100.00
52983;BME280;48698;45.736;13.926;2023-02-22T23:14:37;97515.94;;;7.21;100.00
52983;BME280;48698;45.736;13.926;2023-02-22T23:19:42;97269.25;;;5.76;100.00
52983;BME280;48698;45.736;13.926;2023-02-22T23:24:48;97409.19;;;6.61;100.00
52983;BME280;48698;45.736;13.926;2023-02-22T23:29:51;97512.81;;;7.11;100.00
52983;BME280;48698;45.736;13.926;2023-02-22T23:34:54;97483.13;;;7.26;100.00
52983;BME280;48698;45.736;13.926;2023-02-22T23:39:57;97490.75;;;7.34;100.00
52983;BME280;48698;45.736;13.926;2023-02-22T23:45:01;97401.09;;;6.88;100.00
52983;BME280;48698;45.736;13.926;2023-02-22T23:50:04;97518.69;;;7.61;100.00
52983;BME280;48698;45.736;13.926;2023-02-22T23:55:14;97527.75;;;7.76;100.00
